sensor_id;sensor_type;location;lat;lon;timestamp;pressure;altitude;pressure_sealevel;temperature;humidity
78845;BME280;68195;50.854;2.860;2023-07-13T00:00:50;101373.66;;;16.36;91.25
78845;BME280;68195;50.854;2.860;2023-07-13T00:03:15;101285.06;;;15.79;91.47
78845;BME280;68195;50.854;2.860;2023-07-13T00:05:42;101412.22;;;16.52;91.92
78845;BME280;68195;50.854;2.860;2023-07-13T00:08:12;101430.50;;;16.55;91.17
78845;BME280;68195;50.854;2.860;2023-07-13T00:10:41;101438.03;;;16.61;92.13
78845;BME280;68195;50.854;2.860;2023-07-13T00:13:07;101387.88;;;16.34;92.40
78845;BME280;68195;50.854;2.860;2023-07-13T00:15:34;101421.44;;;16.59;92.35
78845;BME280;68195;50.854;2.860;2023-07-13T00:18:00;101378.69;;;16.27;92.79
78845;BME280;68195;50.854;2.860;2023-07-13T00:20:28;101414.00;;;16.51;92.23
78845;BME280;68195;50.854;2.860;2023-07-13T00:22:54;101372.56;;;16.26;92.55
78845;BME280;68195;50.854;2.860;2023-07-13T00:25:20;101370.22;;;16.22;92.35
78845;BME280;68195;50.854;2.860;2023-07-13T00:27:48;101379.00;;;16.22;93.19
78845;BME280;68195;50.854;2.860;2023-07-13T00:30:14;101396.19;;;16.28;93.02
78845;BME280;68195;50.854;2.860;2023-07-13T00:32:40;101427.78;;;16.42;93.19
78845;BME280;68195;50.854;2.860;2023-07-13T00:35:06;101414.91;;;16.37;93.72
78845;BME280;68195;50.854;2.860;2023-07-13T00:37:34;101388.94;;;16.17;93.88
78845;BME280;68195;50.854;2.860;2023-07-13T00:40:03;101345.16;;;15.87;93.55
78845;BME280;68195;50.854;2.860;2023-07-13T00:42:31;101359.25;;;16.01;93.67
78845;BME280;68195;50.854;2.860;2023-07-13T00:47:47;101380.50;;;16.12;93.58
78845;BME280;68195;50.854;2.860;2023-07-13T00:50:16;101412.00;;;16.28;93.95
78845;BME280;68195;50.854;2.860;2023-07-13T00:52:47;101374.78;;;16.05;94.62
78845;BME280;68195;50.854;2.860;2023-07-13T00:55:16;101350.91;;;15.94;94.89
78845;BME280;68195;50.854;2.860;2023-07-13T00:57:43;101426.00;;;16.28;95.40
78845;BME280;68195;50.854;2.860;2023-07-13T01:00:13;101416.44;;;16.27;95.26
78845;BME280;68195;50.854;2.860;2023-07-13T01:02:41;101425.09;;;16.29;94.82
78845;BME280;68195;50.854;2.860;2023-07-13T01:05:18;101391.34;;;16.07;95.46
78845;BME280;68195;50.854;2.860;2023-07-13T01:07:47;101387.38;;;16.00;94.92
78845;BME280;68195;50.854;2.860;2023-07-13T01:10:13;101429.06;;;16.22;96.07
78845;BME280;68195;50.854;2.860;2023-07-13T01:12:41;101388.41;;;15.97;96.00
78845;BME280;68195;50.854;2.860;2023-07-13T01:18:10;101403.63;;;16.07;95.78
78845;BME280;68195;50.854;2.860;2023-07-13T01:20:37;101427.19;;;16.24;96.03
78845;BME280;68195;50.854;2.860;2023-07-13T01:23:11;101430.75;;;16.23;95.67
78845;BME280;68195;50.854;2.860;2023-07-13T01:25:38;101426.31;;;16.24;95.94
78845;BME280;68195;50.854;2.860;2023-07-13T01:28:06;101407.22;;;16.06;96.28
78845;BME280;68195;50.854;2.860;2023-07-13T01:30:31;101435.47;;;16.18;96.33
78845;BME280;68195;50.854;2.860;2023-07-13T01:32:58;101406.69;;;16.01;96.12
78845;BME280;68195;50.854;2.860;2023-07-13T01:35:27;101342.22;;;15.63;95.90
78845;BME280;68195;50.854;2.860;2023-07-13T01:37:53;101387.66;;;15.95;95.73
78845;BME280;68195;50.854;2.860;2023-07-13T01:40:20;101423.22;;;16.17;96.16
78845;BME280;68195;50.854;2.860;2023-07-13T01:42:45;101351.44;;;15.70;96.57
78845;BME280;68195;50.854;2.860;2023-07-13T01:45:15;101329.34;;;15.58;95.81
78845;BME280;68195;50.854;2.860;2023-07-13T01:47:41;101340.47;;;15.64;96.14
78845;BME280;68195;50.854;2.860;2023-07-13T01:50:06;101372.25;;;15.75;96.40
78845;BME280;68195;50.854;2.860;2023-07-13T01:52:34;101293.91;;;15.21;96.63
78845;BME280;68195;50.854;2.860;2023-07-13T01:55:02;101306.97;;;15.37;95.91
78845;BME280;68195;50.854;2.860;2023-07-13T01:57:30;101340.06;;;15.55;96.68
78845;BME280;68195;50.854;2.860;2023-07-13T01:59:58;101382.44;;;15.81;96.46
78845;BME280;68195;50.854;2.860;2023-07-13T02:02:26;101439.59;;;16.08;96.67
78845;BME280;68195;50.854;2.860;2023-07-13T02:04:52;101409.03;;;15.91;96.74
78845;BME280;68195;50.854;2.860;2023-07-13T02:07:20;101288.72;;;15.20;96.91
78845;BME280;68195;50.854;2.860;2023-07-13T02:09:45;101339.50;;;15.36;96.95
78845;BME280;68195;50.854;2.860;2023-07-13T02:12:13;101407.72;;;15.84;97.08
78845;BME280;68195;50.854;2.860;2023-07-13T02:14:38;101387.09;;;15.62;97.05
78845;BME280;68195;50.854;2.860;2023-07-13T02:17:05;101444.50;;;15.99;97.15
78845;BME280;68195;50.854;2.860;2023-07-13T02:19:35;101449.75;;;15.99;97.03
78845;BME280;68195;50.854;2.860;2023-07-13T02:22:01;101371.75;;;15.54;97.49
78845;BME280;68195;50.854;2.860;2023-07-13T02:24:29;101422.84;;;15.80;97.63
78845;BME280;68195;50.854;2.860;2023-07-13T02:26:54;101418.72;;;15.76;97.69
78845;BME280;68195;50.854;2.860;2023-07-13T02:29:23;101334.28;;;15.20;97.72
78845;BME280;68195;50.854;2.860;2023-07-13T02:31:48;101422.19;;;15.76;97.33
78845;BME280;68195;50.854;2.860;2023-07-13T02:34:16;101376.16;;;15.39;97.75
78845;BME280;68195;50.854;2.860;2023-07-13T02:36:46;101404.56;;;15.63;97.77
78845;BME280;68195;50.854;2.860;2023-07-13T02:39:13;101409.63;;;15.66;98.01
78845;BME280;68195;50.854;2.860;2023-07-13T02:41:40;101352.81;;;15.33;97.92
78845;BME280;68195;50.854;2.860;2023-07-13T02:44:06;101355.28;;;15.36;98.62
78845;BME280;68195;50.854;2.860;2023-07-13T02:46:34;101429.84;;;15.81;98.87
78845;BME280;68195;50.854;2.860;2023-07-13T02:49:04;101420.75;;;15.71;99.07
78845;BME280;68195;50.854;2.860;2023-07-13T02:51:29;101424.94;;;15.75;98.93
78845;BME280;68195;50.854;2.860;2023-07-13T02:53:55;101419.84;;;15.72;98.81
78845;BME280;68195;50.854;2.860;2023-07-13T02:56:28;101441.97;;;15.84;98.92
78845;BME280;68195;50.854;2.860;2023-07-13T02:58:56;101430.53;;;15.69;99.18
78845;BME280;68195;50.854;2.860;2023-07-13T03:01:22;101383.00;;;15.42;99.94
78845;BME280;68195;50.854;2.860;2023-07-13T03:03:52;101452.38;;;15.85;99.23
78845;BME280;68195;50.854;2.860;2023-07-13T03:06:18;101454.28;;;15.83;99.45
78845;BME280;68195;50.854;2.860;2023-07-13T03:08:47;101416.97;;;15.61;99.43
78845;BME280;68195;50.854;2.860;2023-07-13T03:11:16;101434.09;;;15.68;99.28
78845;BME280;68195;50.854;2.860;2023-07-13T03:13:42;101439.91;;;15.74;99.93
78845;BME280;68195;50.854;2.860;2023-07-13T03:16:09;101418.28;;;15.53;99.74
78845;BME280;68195;50.854;2.860;2023-07-13T03:18:38;101440.81;;;15.73;99.77
78845;BME280;68195;50.854;2.860;2023-07-13T03:21:04;101359.22;;;15.14;99.81
78845;BME280;68195;50.854;2.860;2023-07-13T03:23:30;101403.91;;;15.45;99.03
78845;BME280;68195;50.854;2.860;2023-07-13T03:26:09;101466.50;;;15.84;99.41
78845;BME280;68195;50.854;2.860;2023-07-13T03:28:38;101422.44;;;15.57;100.00
78845;BME280;68195;50.854;2.860;2023-07-13T03:31:09;101469.97;;;15.85;100.00
78845;BME280;68195;50.854;2.860;2023-07-13T03:33:38;101435.31;;;15.62;100.00
78845;BME280;68195;50.854;2.860;2023-07-13T03:36:09;101443.13;;;15.64;100.00
78845;BME280;68195;50.854;2.860;2023-07-13T03:38:35;101403.91;;;15.45;100.00
78845;BME280;68195;50.854;2.860;2023-07-13T03:41:00;101386.13;;;15.34;100.00
78845;BME280;68195;50.854;2.860;2023-07-13T03:43:26;101417.34;;;15.54;100.00
78845;BME280;68195;50.854;2.860;2023-07-13T03:45:54;101475.63;;;15.93;100.00
78845;BME280;68195;50.854;2.860;2023-07-13T03:48:20;101439.97;;;15.73;99.87
78845;BME280;68195;50.854;2.860;2023-07-13T03:50:46;101434.72;;;15.73;100.00
78845;BME280;68195;50.854;2.860;2023-07-13T03:53:14;101455.69;;;15.89;100.00
78845;BME280;68195;50.854;2.860;2023-07-13T03:55:40;101435.63;;;15.72;100.00
78845;BME280;68195;50.854;2.860;2023-07-13T03:58:25;101483.09;;;16.01;100.00
78845;BME280;68195;50.854;2.860;2023-07-13T04:00:52;101483.09;;;16.01;100.00
78845;BME280;68195;50.854;2.860;2023-07-13T04:03:18;101434.84;;;15.70;100.00
78845;BME280;68195;50.854;2.860;2023-07-13T04:05:45;101479.69;;;15.98;100.00
78845;BME280;68195;50.854;2.860;2023-07-13T04:08:11;101487.41;;;16.02;100.00
78845;BME280;68195;50.854;2.860;2023-07-13T04:10:37;101496.81;;;16.06;100.00
78845;BME280;68195;50.854;2.860;2023-07-13T04:13:05;101451.06;;;15.78;100.00
78845;BME280;68195;50.854;2.860;2023-07-13T04:15:31;101506.16;;;16.11;100.00
78845;BME280;68195;50.854;2.860;2023-07-13T04:17:59;101471.97;;;15.95;100.00
78845;BME280;68195;50.854;2.860;2023-07-13T04:20:25;101499.00;;;16.13;100.00
78845;BME280;68195;50.854;2.860;2023-07-13T04:22:52;101465.94;;;15.93;100.00
78845;BME280;68195;50.854;2.860;2023-07-13T04:25:19;101490.06;;;16.16;100.00
78845;BME280;68195;50.854;2.860;2023-07-13T04:27:47;101497.97;;;16.16;100.00
78845;BME280;68195;50.854;2.860;2023-07-13T04:30:14;101467.25;;;15.86;100.00
78845;BME280;68195;50.854;2.860;2023-07-13T04:32:42;101418.50;;;15.65;100.00
78845;BME280;68195;50.854;2.860;2023-07-13T04:35:08;101487.78;;;16.10;100.00
78845;BME280;68195;50.854;2.860;2023-07-13T04:37:38;101436.97;;;15.79;100.00
78845;BME280;68195;50.854;2.860;2023-07-13T04:40:06;101449.59;;;15.88;100.00
78845;BME280;68195;50.854;2.860;2023-07-13T04:42:37;101465.56;;;15.99;100.00
78845;BME280;68195;50.854;2.860;2023-07-13T04:45:06;101493.16;;;16.23;100.00
78845;BME280;68195;50.854;2.860;2023-07-13T04:47:34;101473.84;;;16.08;100.00
78845;BME280;68195;50.854;2.860;2023-07-13T04:50:00;101485.91;;;16.12;100.00
78845;BME280;68195;50.854;2.860;2023-07-13T04:52:25;101512.75;;;16.33;100.00
78845;BME280;68195;50.854;2.860;2023-07-13T04:54:50;101526.38;;;16.39;100.00
78845;BME280;68195;50.854;2.860;2023-07-13T04:57:18;101390.84;;;15.57;100.00
78845;BME280;68195;50.854;2.860;2023-07-13T04:59:44;101530.53;;;16.44;100.00
78845;BME280;68195;50.854;2.860;2023-07-13T05:02:10;101525.13;;;16.45;100.00
78845;BME280;68195;50.854;2.860;2023-07-13T05:04:40;101414.28;;;15.76;100.00
78845;BME280;68195;50.854;2.860;2023-07-13T05:07:08;101523.25;;;16.47;100.00
78845;BME280;68195;50.854;2.860;2023-07-13T05:09:33;101486.00;;;16.25;100.00
78845;BME280;68195;50.854;2.860;2023-07-13T05:11:59;101446.56;;;15.94;100.00
78845;BME280;68195;50.854;2.860;2023-07-13T05:14:29;101453.06;;;16.03;100.00
78845;BME280;68195;50.854;2.860;2023-07-13T05:16:54;101502.28;;;16.31;100.00
78845;BME280;68195;50.854;2.860;2023-07-13T05:19:19;101500.41;;;16.33;100.00
78845;BME280;68195;50.854;2.860;2023-07-13T05:21:45;101503.78;;;16.35;100.00
78845;BME280;68195;50.854;2.860;2023-07-13T05:24:10;101544.53;;;16.58;100.00
78845;BME280;68195;50.854;2.860;2023-07-13T05:26:35;101544.44;;;16.60;100.00
78845;BME280;68195;50.854;2.860;2023-07-13T05:29:01;101548.66;;;16.63;100.00
78845;BME280;68195;50.854;2.860;2023-07-13T05:31:26;101535.75;;;16.58;100.00
78845;BME280;68195;50.854;2.860;2023-07-13T05:33:53;101553.75;;;16.66;100.00
78845;BME280;68195;50.854;2.860;2023-07-13T05:36:18;101513.00;;;16.43;100.00
78845;BME280;68195;50.854;2.860;2023-07-13T05:38:44;101531.63;;;16.54;100.00
78845;BME280;68195;50.854;2.860;2023-07-13T05:41:09;101534.09;;;16.57;100.00
78845;BME280;68195;50.854;2.860;2023-07-13T05:43:34;101556.56;;;16.77;100.00
78845;BME280;68195;50.854;2.860;2023-07-13T05:46:00;101523.34;;;16.60;100.00
78845;BME280;68195;50.854;2.860;2023-07-13T05:48:25;101501.13;;;16.50;100.00
78845;BME280;68195;50.854;2.860;2023-07-13T05:50:53;101555.53;;;16.79;100.00
78845;BME280;68195;50.854;2.860;2023-07-13T05:53:18;101547.81;;;16.76;100.00
78845;BME280;68195;50.854;2.860;2023-07-13T05:55:47;101547.91;;;16.75;100.00
78845;BME280;68195;50.854;2.860;2023-07-13T05:58:16;101561.50;;;16.83;100.00
78845;BME280;68195;50.854;2.860;2023-07-13T06:00:42;101543.38;;;16.77;100.00
78845;BME280;68195;50.854;2.860;2023-07-13T06:03:09;101546.41;;;16.85;100.00
78845;BME280;68195;50.854;2.860;2023-07-13T06:05:38;101575.88;;;16.92;100.00
78845;BME280;68195;50.854;2.860;2023-07-13T06:08:06;101562.03;;;16.88;100.00
78845;BME280;68195;50.854;2.860;2023-07-13T06:10:35;101560.44;;;16.86;100.00
78845;BME280;68195;50.854;2.860;2023-07-13T06:13:03;101583.13;;;17.02;100.00
78845;BME280;68195;50.854;2.860;2023-07-13T06:15:29;101541.44;;;16.80;100.00
78845;BME280;68195;50.854;2.860;2023-07-13T06:17:54;101588.09;;;17.07;100.00
78845;BME280;68195;50.854;2.860;2023-07-13T06:20:20;101574.47;;;17.00;100.00
78845;BME280;68195;50.854;2.860;2023-07-13T06:22:48;101580.19;;;17.07;100.00
78845;BME280;68195;50.854;2.860;2023-07-13T06:25:13;101600.72;;;17.16;100.00
78845;BME280;68195;50.854;2.860;2023-07-13T06:27:39;101598.63;;;17.21;100.00
78845;BME280;68195;50.854;2.860;2023-07-13T06:30:04;101610.88;;;17.22;100.00
78845;BME280;68195;50.854;2.860;2023-07-13T06:32:32;101603.72;;;17.25;100.00
78845;BME280;68195;50.854;2.860;2023-07-13T06:35:02;101591.84;;;17.17;100.00
78845;BME280;68195;50.854;2.860;2023-07-13T06:37:30;101602.03;;;17.24;100.00
78845;BME280;68195;50.854;2.860;2023-07-13T06:39:57;101586.19;;;17.24;100.00
78845;BME280;68195;50.854;2.860;2023-07-13T06:42:25;101561.31;;;17.13;100.00
78845;BME280;68195;50.854;2.860;2023-07-13T06:44:51;101577.41;;;17.23;99.60
78845;BME280;68195;50.854;2.860;2023-07-13T06:47:16;101610.47;;;17.43;99.60
78845;BME280;68195;50.854;2.860;2023-07-13T06:49:41;101562.44;;;17.24;99.75
78845;BME280;68195;50.854;2.860;2023-07-13T06:52:07;101601.25;;;17.49;99.80
78845;BME280;68195;50.854;2.860;2023-07-13T06:54:32;101594.63;;;17.43;99.60
78845;BME280;68195;50.854;2.860;2023-07-13T06:57:00;101572.91;;;17.38;99.12
78845;BME280;68195;50.854;2.860;2023-07-13T06:59:28;101550.06;;;17.24;99.17
78845;BME280;68195;50.854;2.860;2023-07-13T07:01:53;101605.31;;;17.54;99.11
78845;BME280;68195;50.854;2.860;2023-07-13T07:04:19;101600.78;;;17.56;98.65
78845;BME280;68195;50.854;2.860;2023-07-13T07:06:44;101598.13;;;17.56;98.83
78845;BME280;68195;50.854;2.860;2023-07-13T07:09:10;101618.91;;;17.75;98.69
78845;BME280;68195;50.854;2.860;2023-07-13T07:11:36;101619.75;;;17.76;98.97
78845;BME280;68195;50.854;2.860;2023-07-13T07:14:03;101624.66;;;17.82;98.84
78845;BME280;68195;50.854;2.860;2023-07-13T07:16:34;101614.34;;;17.77;98.12
78845;BME280;68195;50.854;2.860;2023-07-13T07:19:04;101621.50;;;17.90;97.93
78845;BME280;68195;50.854;2.860;2023-07-13T07:21:30;101618.94;;;17.88;97.71
78845;BME280;68195;50.854;2.860;2023-07-13T07:23:56;101628.19;;;17.95;97.40
78845;BME280;68195;50.854;2.860;2023-07-13T07:26:25;101620.88;;;17.99;97.05
78845;BME280;68195;50.854;2.860;2023-07-13T07:28:51;101618.97;;;18.01;96.92
78845;BME280;68195;50.854;2.860;2023-07-13T07:31:16;101625.44;;;18.10;96.61
78845;BME280;68195;50.854;2.860;2023-07-13T07:33:42;101602.09;;;18.03;96.75
78845;BME280;68195;50.854;2.860;2023-07-13T07:36:08;101608.41;;;18.14;96.42
78845;BME280;68195;50.854;2.860;2023-07-13T07:38:34;101620.16;;;18.22;96.00
78845;BME280;68195;50.854;2.860;2023-07-13T07:41:05;101624.72;;;18.33;95.82
78845;BME280;68195;50.854;2.860;2023-07-13T07:43:30;101605.34;;;18.20;95.28
78845;BME280;68195;50.854;2.860;2023-07-13T07:45:57;101629.81;;;18.36;94.59
78845;BME280;68195;50.854;2.860;2023-07-13T07:48:22;101587.69;;;18.20;94.00
78845;BME280;68195;50.854;2.860;2023-07-13T07:50:50;101595.75;;;18.32;93.66
78845;BME280;68195;50.854;2.860;2023-07-13T07:53:20;101640.59;;;18.59;93.98
78845;BME280;68195;50.854;2.860;2023-07-13T07:55:46;101628.00;;;18.50;92.88
78845;BME280;68195;50.854;2.860;2023-07-13T07:58:13;101622.63;;;18.51;92.88
78845;BME280;68195;50.854;2.860;2023-07-13T08:00:39;101650.53;;;18.68;92.35
78845;BME280;68195;50.854;2.860;2023-07-13T08:03:05;101640.19;;;18.78;92.48
78845;BME280;68195;50.854;2.860;2023-07-13T08:05:33;101591.50;;;18.55;92.20
78845;BME280;68195;50.854;2.860;2023-07-13T08:07:59;101622.81;;;18.87;92.11
78845;BME280;68195;50.854;2.860;2023-07-13T08:10:25;101619.50;;;18.96;91.39
78845;BME280;68195;50.854;2.860;2023-07-13T08:12:55;101621.13;;;19.22;91.22
78845;BME280;68195;50.854;2.860;2023-07-13T08:15:20;101611.22;;;19.37;89.23
78845;BME280;68195;50.854;2.860;2023-07-13T08:17:48;101633.06;;;19.52;86.83
78845;BME280;68195;50.854;2.860;2023-07-13T08:20:14;101620.34;;;19.57;85.65
78845;BME280;68195;50.854;2.860;2023-07-13T08:22:40;101621.69;;;19.63;84.83
78845;BME280;68195;50.854;2.860;2023-07-13T08:25:06;101612.16;;;19.60;84.09
78845;BME280;68195;50.854;2.860;2023-07-13T08:27:32;101628.88;;;19.74;83.80
78845;BME280;68195;50.854;2.860;2023-07-13T08:30:00;101617.00;;;19.66;84.29
78845;BME280;68195;50.854;2.860;2023-07-13T08:32:25;101636.75;;;19.86;84.36
78845;BME280;68195;50.854;2.860;2023-07-13T08:34:51;101639.31;;;19.99;83.82
78845;BME280;68195;50.854;2.860;2023-07-13T08:37:19;101642.88;;;20.11;83.48
78845;BME280;68195;50.854;2.860;2023-07-13T08:39:45;101616.81;;;20.05;83.60
78845;BME280;68195;50.854;2.860;2023-07-13T08:42:34;101642.06;;;20.33;83.27
78845;BME280;68195;50.854;2.860;2023-07-13T08:47:39;101615.19;;;20.49;81.18
78845;BME280;68195;50.854;2.860;2023-07-13T08:50:11;101602.19;;;20.57;80.96
78845;BME280;68195;50.854;2.860;2023-07-13T08:52:39;101634.16;;;20.89;78.96
78845;BME280;68195;50.854;2.860;2023-07-13T08:55:23;101633.19;;;21.02;78.47
78845;BME280;68195;50.854;2.860;2023-07-13T08:58:05;101621.81;;;21.11;77.03
78845;BME280;68195;50.854;2.860;2023-07-13T09:00:43;101633.84;;;21.26;77.28
78845;BME280;68195;50.854;2.860;2023-07-13T09:03:23;101586.56;;;21.09;76.06
78845;BME280;68195;50.854;2.860;2023-07-13T09:05:57;101629.72;;;21.34;75.91
78845;BME280;68195;50.854;2.860;2023-07-13T09:08:58;101609.22;;;21.24;74.79
78845;BME280;68195;50.854;2.860;2023-07-13T09:17:03;101624.66;;;21.42;74.54
78845;BME280;68195;50.854;2.860;2023-07-13T09:19:31;101621.75;;;21.34;74.03
78845;BME280;68195;50.854;2.860;2023-07-13T09:21:59;101630.25;;;21.27;71.73
78845;BME280;68195;50.854;2.860;2023-07-13T09:27:12;101587.34;;;20.66;77.69
78845;BME280;68195;50.854;2.860;2023-07-13T09:29:48;101602.34;;;20.67;82.07
78845;BME280;68195;50.854;2.860;2023-07-13T09:32:21;101672.66;;;20.84;85.25
78845;BME280;68195;50.854;2.860;2023-07-13T09:34:53;101687.19;;;20.56;85.59
78845;BME280;68195;50.854;2.860;2023-07-13T09:37:27;101667.56;;;20.12;87.12
78845;BME280;68195;50.854;2.860;2023-07-13T09:39:54;101696.25;;;20.06;90.34
78845;BME280;68195;50.854;2.860;2023-07-13T09:42:25;101693.78;;;19.92;91.10
78845;BME280;68195;50.854;2.860;2023-07-13T09:47:19;101699.53;;;19.86;92.51
78845;BME280;68195;50.854;2.860;2023-07-13T09:49:44;101648.97;;;19.52;94.17
78845;BME280;68195;50.854;2.860;2023-07-13T09:52:16;101662.47;;;19.49;94.89
78845;BME280;68195;50.854;2.860;2023-07-13T09:54:48;101633.47;;;19.35;95.85
78845;BME280;68195;50.854;2.860;2023-07-13T09:57:23;101620.75;;;19.16;96.10
78845;BME280;68195;50.854;2.860;2023-07-13T09:59:52;101698.66;;;19.74;94.96
78845;BME280;68195;50.854;2.860;2023-07-13T10:02:28;101696.59;;;19.78;96.10
78845;BME280;68195;50.854;2.860;2023-07-13T10:07:25;101643.97;;;19.60;97.05
78845;BME280;68195;50.854;2.860;2023-07-13T10:09:54;101676.66;;;19.85;97.77
78845;BME280;68195;50.854;2.860;2023-07-13T10:12:20;101654.03;;;19.92;98.88
78845;BME280;68195;50.854;2.860;2023-07-13T10:14:51;101677.13;;;20.25;96.67
78845;BME280;68195;50.854;2.860;2023-07-13T10:17:26;101596.03;;;19.87;95.90
78845;BME280;68195;50.854;2.860;2023-07-13T10:20:06;101681.31;;;20.52;95.25
78845;BME280;68195;50.854;2.860;2023-07-13T10:23:04;101676.25;;;20.60;94.86
78845;BME280;68195;50.854;2.860;2023-07-13T10:25:36;101650.28;;;20.53;94.22
78845;BME280;68195;50.854;2.860;2023-07-13T10:28:27;101657.19;;;20.66;91.57
78845;BME280;68195;50.854;2.860;2023-07-13T10:30:55;101679.56;;;20.86;90.90
78845;BME280;68195;50.854;2.860;2023-07-13T10:33:22;101635.59;;;20.60;89.63
78845;BME280;68195;50.854;2.860;2023-07-13T10:36:01;101678.31;;;20.79;88.53
78845;BME280;68195;50.854;2.860;2023-07-13T10:38:29;101624.72;;;20.52;86.31
78845;BME280;68195;50.854;2.860;2023-07-13T10:41:09;101689.19;;;20.99;86.23
78845;BME280;68195;50.854;2.860;2023-07-13T10:43:42;101657.94;;;20.91;86.40
78845;BME280;68195;50.854;2.860;2023-07-13T10:46:11;101645.88;;;20.87;84.38
78845;BME280;68195;50.854;2.860;2023-07-13T10:48:39;101664.28;;;21.22;83.33
78845;BME280;68195;50.854;2.860;2023-07-13T10:51:06;101685.56;;;21.45;81.56
78845;BME280;68195;50.854;2.860;2023-07-13T10:53:38;101652.69;;;21.35;81.67
78845;BME280;68195;50.854;2.860;2023-07-13T10:56:24;101688.91;;;21.58;79.23
78845;BME280;68195;50.854;2.860;2023-07-13T10:59:25;101673.91;;;21.68;79.05
78845;BME280;68195;50.854;2.860;2023-07-13T11:01:56;101683.00;;;21.87;77.42
78845;BME280;68195;50.854;2.860;2023-07-13T11:04:25;101637.63;;;21.67;76.88
78845;BME280;68195;50.854;2.860;2023-07-13T11:06:57;101544.19;;;21.19;75.33
78845;BME280;68195;50.854;2.860;2023-07-13T11:09:37;101673.94;;;22.10;74.01
78845;BME280;68195;50.854;2.860;2023-07-13T11:12:25;101620.41;;;21.83;72.21
78845;BME280;68195;50.854;2.860;2023-07-13T11:17:48;101682.47;;;22.25;71.32
78845;BME280;68195;50.854;2.860;2023-07-13T11:25:29;101685.00;;;22.48;69.40
78845;BME280;68195;50.854;2.860;2023-07-13T11:30:44;101682.81;;;22.63;67.30
78845;BME280;68195;50.854;2.860;2023-07-13T11:38:21;101660.69;;;22.62;66.68
78845;BME280;68195;50.854;2.860;2023-07-13T11:40:48;101684.63;;;22.83;64.86
78845;BME280;68195;50.854;2.860;2023-07-13T11:43:16;101681.69;;;22.86;65.16
78845;BME280;68195;50.854;2.860;2023-07-13T11:45:43;101600.22;;;22.43;65.58
78845;BME280;68195;50.854;2.860;2023-07-13T11:48:29;101672.56;;;22.89;63.73
78845;BME280;68195;50.854;2.860;2023-07-13T11:51:00;101677.50;;;22.93;63.22
78845;BME280;68195;50.854;2.860;2023-07-13T11:53:29;101648.56;;;22.79;63.31
78845;BME280;68195;50.854;2.860;2023-07-13T11:56:00;101660.13;;;22.99;63.06
78845;BME280;68195;50.854;2.860;2023-07-13T11:58:27;101652.78;;;22.82;62.24
78845;BME280;68195;50.854;2.860;2023-07-13T12:00:53;101663.03;;;22.86;61.13
78845;BME280;68195;50.854;2.860;2023-07-13T12:03:22;101665.13;;;22.83;60.86
78845;BME280;68195;50.854;2.860;2023-07-13T12:05:59;101640.22;;;22.63;61.10
78845;BME280;68195;50.854;2.860;2023-07-13T12:08:26;101661.59;;;22.72;61.84
78845;BME280;68195;50.854;2.860;2023-07-13T12:11:05;101680.44;;;22.90;62.06
78845;BME280;68195;50.854;2.860;2023-07-13T12:13:38;101666.84;;;22.93;61.32
78845;BME280;68195;50.854;2.860;2023-07-13T12:16:31;101600.50;;;22.50;61.98
78845;BME280;68195;50.854;2.860;2023-07-13T12:18:59;101678.16;;;23.07;61.58
78845;BME280;68195;50.854;2.860;2023-07-13T12:21:36;101682.28;;;23.00;61.89
78845;BME280;68195;50.854;2.860;2023-07-13T12:24:02;101685.44;;;23.05;61.82
78845;BME280;68195;50.854;2.860;2023-07-13T12:26:29;101638.09;;;22.87;60.66
78845;BME280;68195;50.854;2.860;2023-07-13T12:28:56;101641.31;;;22.91;61.18
78845;BME280;68195;50.854;2.860;2023-07-13T12:34:20;101613.97;;;22.79;59.93
78845;BME280;68195;50.854;2.860;2023-07-13T12:36:55;101684.38;;;23.27;60.48
78845;BME280;68195;50.854;2.860;2023-07-13T12:39:44;101681.72;;;23.27;60.23
78845;BME280;68195;50.854;2.860;2023-07-13T12:42:26;101681.53;;;23.09;58.59
78845;BME280;68195;50.854;2.860;2023-07-13T12:44:56;101655.31;;;22.83;59.89
78845;BME280;68195;50.854;2.860;2023-07-13T12:47:23;101658.84;;;22.93;59.79
78845;BME280;68195;50.854;2.860;2023-07-13T12:49:54;101670.28;;;23.05;60.04
78845;BME280;68195;50.854;2.860;2023-07-13T12:52:31;101634.44;;;22.88;60.72
78845;BME280;68195;50.854;2.860;2023-07-13T12:55:18;101681.97;;;23.24;59.99
78845;BME280;68195;50.854;2.860;2023-07-13T12:57:54;101675.25;;;23.20;58.47
78845;BME280;68195;50.854;2.860;2023-07-13T13:02:58;101656.88;;;22.96;57.53
78845;BME280;68195;50.854;2.860;2023-07-13T13:05:29;101675.22;;;23.10;59.45
78845;BME280;68195;50.854;2.860;2023-07-13T13:08:00;101655.00;;;23.07;58.59
78845;BME280;68195;50.854;2.860;2023-07-13T13:10:25;101653.97;;;22.99;59.67
78845;BME280;68195;50.854;2.860;2023-07-13T13:12:59;101632.06;;;22.95;59.20
78845;BME280;68195;50.854;2.860;2023-07-13T13:15:28;101677.22;;;23.27;58.40
78845;BME280;68195;50.854;2.860;2023-07-13T13:17:55;101673.97;;;23.24;58.15
78845;BME280;68195;50.854;2.860;2023-07-13T13:20:22;101699.78;;;23.23;57.64
78845;BME280;68195;50.854;2.860;2023-07-13T13:22:48;101672.53;;;23.10;58.85
78845;BME280;68195;50.854;2.860;2023-07-13T13:25:14;101695.00;;;23.17;58.76
78845;BME280;68195;50.854;2.860;2023-07-13T13:27:41;101702.84;;;23.09;57.94
78845;BME280;68195;50.854;2.860;2023-07-13T13:30:16;101681.78;;;23.06;58.36
78845;BME280;68195;50.854;2.860;2023-07-13T13:32:44;101679.13;;;23.06;59.02
78845;BME280;68195;50.854;2.860;2023-07-13T13:35:14;101692.91;;;23.11;59.16
78845;BME280;68195;50.854;2.860;2023-07-13T13:37:40;101673.16;;;22.92;58.78
78845;BME280;68195;50.854;2.860;2023-07-13T13:40:17;101672.44;;;22.90;58.69